Time;durP1;ratioP1;P1;durP2;ratioP2;P2;SDS_P1;SDS_P2;PMS_P1;PMS_P2;Temp;Humidity;BMP_temperature;BMP_pressure;BME280_temperature;BME280_humidity;BME280_pressure;Samples;Min_cycle;Max_cycle;Signal;HPM_P1;HPM_P2
2022/02/05 00:01:24;;;;;;;8.77;3.83;;;;;;;;;;5080503;28;20217;-81
2022/02/05 00:03:58;;;;;;;15.73;3.80;;;;;;;;;;5080202;28;20246;-81
2022/02/05 00:06:31;;;;;;;8.57;3.70;;;;;;;;;;5082480;28;20205;-81
2022/02/05 00:09:08;;;;;;;12.03;3.30;;;;;;;;;;5091529;28;20292;-81
2022/02/05 00:14:35;;;;;;;5.50;2.97;;;;;;;;;;5080608;28;20965;-81
2022/02/05 00:42:11;;;;;;;4.50;2.30;;;;;;;;;;5061735;28;20581;-80
2022/02/05 00:44:38;;;;;;;8.70;3.10;;;;;;;;;;5086245;28;20225;-82
2022/02/05 00:47:06;;;;;;;8.80;3.00;;;;;;;;;;5089048;28;20301;-82
2022/02/05 00:49:33;;;;;;;5.47;2.93;;;;;;;;;;5085271;28;20269;-82
2022/02/05 00:52:07;;;;;;;11.37;3.90;;;;;;;;;;5086850;28;20263;-80
2022/02/05 00:54:34;;;;;;;11.90;3.73;;;;;;;;;;5089324;28;20222;-80
2022/02/05 00:57:30;;;;;;;10.33;4.30;;;;;;;;;;5092619;28;20245;-81
2022/02/05 00:59:57;;;;;;;12.47;5.03;;;;;;;;;;5092368;28;20198;-82
2022/02/05 01:02:24;;;;;;;15.30;5.67;;;;;;;;;;5087677;28;20257;-81
2022/02/05 01:04:51;;;;;;;12.17;5.40;;;;;;;;;;5086216;28;20229;-81
2022/02/05 01:07:20;;;;;;;8.70;5.47;;;;;;;;;;5092093;28;20576;-81
2022/02/05 01:09:48;;;;;;;14.33;5.87;;;;;;;;;;5095133;28;20300;-81
2022/02/05 01:12:17;;;;;;;15.93;6.17;;;;;;;;;;5091039;28;20198;-81
2022/02/05 01:14:49;;;;;;;14.43;6.33;;;;;;;;;;5088123;28;20595;-81
2022/02/05 01:17:18;;;;;;;13.37;6.40;;;;;;;;;;5090382;28;20201;-81
2022/02/05 01:20:10;;;;;;;17.23;6.33;;;;;;;;;;5091645;28;20205;-81
2022/02/05 01:22:42;;;;;;;11.10;5.87;;;;;;;;;;5088441;28;20231;-81
2022/02/05 01:25:10;;;;;;;17.23;6.13;;;;;;;;;;5092572;28;20225;-80
2022/02/05 01:27:43;;;;;;;21.60;6.57;;;;;;;;;;5087066;28;20206;-81
2022/02/05 01:30:19;;;;;;;13.90;6.57;;;;;;;;;;5090500;28;20206;-82
2022/02/05 01:32:55;;;;;;;16.10;6.23;;;;;;;;;;5089029;28;20201;-82
2022/02/05 01:35:31;;;;;;;17.00;6.30;;;;;;;;;;5095108;28;20238;-81
2022/02/05 01:51:59;;;;;;;21.57;5.87;;;;;;;;;;5087784;27;20194;-81
2022/02/05 01:54:36;;;;;;;16.23;5.80;;;;;;;;;;5092682;28;20222;-81
2022/02/05 01:57:08;;;;;;;15.23;6.37;;;;;;;;;;5086177;28;20268;-81
2022/02/05 01:59:52;;;;;;;14.57;5.37;;;;;;;;;;5087752;28;20199;-80
2022/02/05 02:05:07;;;;;;;15.80;5.37;;;;;;;;;;5091484;28;20225;-79
2022/02/05 02:13:38;;;;;;;15.33;5.67;;;;;;;;;;5079869;28;20604;-81
2022/02/05 02:16:19;;;;;;;16.97;5.60;;;;;;;;;;5088163;28;20534;-80
2022/02/05 02:18:58;;;;;;;18.50;5.40;;;;;;;;;;5087613;28;20819;-81
2022/02/05 02:21:35;;;;;;;9.17;4.93;;;;;;;;;;5090085;28;20229;-80
2022/02/05 02:24:08;;;;;;;8.90;4.40;;;;;;;;;;5086566;28;20682;-81
2022/02/05 02:26:52;;;;;;;13.67;4.93;;;;;;;;;;5087416;28;20656;-81
2022/02/05 02:29:30;;;;;;;13.83;4.50;;;;;;;;;;5083880;28;20206;-81
2022/02/05 02:31:57;;;;;;;11.20;4.20;;;;;;;;;;5091931;28;20632;-81
2022/02/05 02:34:29;;;;;;;16.13;4.53;;;;;;;;;;5086264;28;20249;-80
2022/02/05 02:37:06;;;;;;;10.37;4.47;;;;;;;;;;5091311;28;20264;-81
2022/02/05 02:39:43;;;;;;;14.43;4.07;;;;;;;;;;5087459;28;20248;-81
2022/02/05 02:42:12;;;;;;;12.27;4.43;;;;;;;;;;5088556;28;20228;-80
2022/02/05 02:44:39;;;;;;;14.23;4.30;;;;;;;;;;5086666;28;20352;-79
2022/02/05 02:47:06;;;;;;;9.97;4.13;;;;;;;;;;5088907;28;20238;-81
2022/02/05 02:49:47;;;;;;;12.40;4.50;;;;;;;;;;5085002;28;20217;-80
2022/02/05 02:57:50;;;;;;;19.40;5.00;;;;;;;;;;5084892;28;20214;-81
2022/02/05 03:00:18;;;;;;;12.33;4.20;;;;;;;;;;5087652;28;20281;-81
2022/02/05 03:02:45;;;;;;;10.90;4.13;;;;;;;;;;5087870;28;20218;-82
2022/02/05 03:05:12;;;;;;;15.50;3.97;;;;;;;;;;5090519;28;20244;-80
2022/02/05 03:07:40;;;;;;;13.23;4.10;;;;;;;;;;5085022;28;20280;-81
2022/02/05 03:10:08;;;;;;;12.23;4.60;;;;;;;;;;5085572;28;20203;-81
2022/02/05 03:12:35;;;;;;;7.00;3.97;;;;;;;;;;5082557;28;20273;-82
2022/02/05 03:15:03;;;;;;;10.40;3.87;;;;;;;;;;5085496;28;20226;-81
2022/02/05 03:17:38;;;;;;;10.73;4.33;;;;;;;;;;5086695;28;20202;-81
2022/02/05 03:20:05;;;;;;;13.17;3.70;;;;;;;;;;5088583;28;20224;-81
2022/02/05 03:22:32;;;;;;;12.50;3.87;;;;;;;;;;5085647;28;20213;-80
2022/02/05 03:25:01;;;;;;;11.90;4.03;;;;;;;;;;5090108;28;20222;-81
2022/02/05 03:27:28;;;;;;;8.60;3.87;;;;;;;;;;5090760;28;20210;-81
2022/02/05 03:29:55;;;;;;;9.23;3.70;;;;;;;;;;5088145;28;20230;-81
2022/02/05 03:32:24;;;;;;;8.40;3.80;;;;;;;;;;5088939;28;20236;-80
2022/02/05 03:34:52;;;;;;;9.77;3.70;;;;;;;;;;5090363;28;20341;-81
2022/02/05 03:37:20;;;;;;;11.80;4.50;;;;;;;;;;5088259;28;20228;-81
2022/02/05 03:39:47;;;;;;;10.77;3.10;;;;;;;;;;5085824;28;20209;-81
2022/02/05 03:42:16;;;;;;;8.73;3.80;;;;;;;;;;5087555;28;20311;-81
2022/02/05 03:44:43;;;;;;;18.40;3.53;;;;;;;;;;5090112;28;20253;-81
2022/02/05 03:47:11;;;;;;;10.30;4.00;;;;;;;;;;5093061;28;20636;-81
2022/02/05 03:49:38;;;;;;;9.30;3.80;;;;;;;;;;5086821;28;20307;-81
2022/02/05 03:52:05;;;;;;;10.73;3.80;;;;;;;;;;5086097;28;20574;-80
2022/02/05 03:54:34;;;;;;;6.63;3.20;;;;;;;;;;5086760;28;20240;-81
2022/02/05 03:57:01;;;;;;;12.00;3.70;;;;;;;;;;5088021;28;20213;-80
2022/02/05 03:59:30;;;;;;;10.37;3.80;;;;;;;;;;5088220;28;20198;-81
2022/02/05 04:01:57;;;;;;;9.27;3.57;;;;;;;;;;5086816;28;20257;-80
2022/02/05 04:04:27;;;;;;;12.03;3.70;;;;;;;;;;5086827;28;20279;-81
2022/02/05 04:06:54;;;;;;;10.27;3.50;;;;;;;;;;5089583;28;20205;-80
2022/02/05 04:09:26;;;;;;;10.00;3.43;;;;;;;;;;5085107;28;20209;-80
2022/02/05 04:15:54;;;;;;;7.63;2.87;;;;;;;;;;5083348;28;20266;-81
2022/02/05 04:17:43;;;;;;;12.93;3.27;;;;;;;;;;5043943;28;20536;-81
2022/02/05 04:20:10;;;;;;;10.87;3.17;;;;;;;;;;5082841;28;20216;-79
2022/02/05 04:22:38;;;;;;;7.57;2.67;;;;;;;;;;5089233;28;20300;-81
2022/02/05 04:25:05;;;;;;;6.77;2.90;;;;;;;;;;5084924;28;20324;-82
2022/02/05 04:27:32;;;;;;;10.20;3.50;;;;;;;;;;5086188;28;20780;-80
2022/02/05 04:30:01;;;;;;;6.80;3.07;;;;;;;;;;5084614;28;20788;-81
2022/02/05 04:32:28;;;;;;;14.27;3.37;;;;;;;;;;5083935;28;20232;-81
2022/02/05 04:34:55;;;;;;;12.87;3.30;;;;;;;;;;5085123;28;20237;-80
2022/02/05 04:37:25;;;;;;;9.10;3.63;;;;;;;;;;5089496;28;20206;-81
2022/02/05 04:40:03;;;;;;;11.40;3.20;;;;;;;;;;5087070;28;20665;-82
2022/02/05 04:42:41;;;;;;;15.27;3.77;;;;;;;;;;5087023;28;20667;-81
2022/02/05 04:45:34;;;;;;;12.80;3.37;;;;;;;;;;5089950;28;20225;-81
2022/02/05 04:53:39;;;;;;;7.37;2.83;;;;;;;;;;5073086;28;20296;-81
2022/02/05 04:59:19;;;;;;;7.03;2.97;;;;;;;;;;5088045;28;20245;-81
2022/02/05 05:02:10;;;;;;;12.57;3.43;;;;;;;;;;5087690;28;20597;-81
2022/02/05 05:04:42;;;;;;;10.13;3.27;;;;;;;;;;5085573;28;20240;-80
2022/02/05 05:10:02;;;;;;;12.70;3.87;;;;;;;;;;5093731;28;20212;-81
2022/02/05 05:12:48;;;;;;;8.30;2.77;;;;;;;;;;5088816;28;20258;-80
2022/02/05 05:15:32;;;;;;;12.43;3.47;;;;;;;;;;5088871;28;20715;-81
2022/02/05 05:20:53;;;;;;;7.60;2.97;;;;;;;;;;5088481;28;20285;-80
2022/02/05 05:23:21;;;;;;;7.50;2.43;;;;;;;;;;5090574;28;20275;-81
2022/02/05 05:25:48;;;;;;;13.37;3.17;;;;;;;;;;5090843;28;20672;-79
2022/02/05 05:28:15;;;;;;;9.20;2.53;;;;;;;;;;5088033;28;20269;-81
2022/02/05 05:30:42;;;;;;;13.67;3.20;;;;;;;;;;5089119;28;20202;-79
2022/02/05 05:33:11;;;;;;;9.93;3.23;;;;;;;;;;5089337;28;20296;-81
2022/02/05 05:35:38;;;;;;;10.50;3.13;;;;;;;;;;5087430;28;20710;-81
2022/02/05 05:38:05;;;;;;;9.97;2.87;;;;;;;;;;5087280;28;20225;-81
2022/02/05 05:40:32;;;;;;;17.93;3.73;;;;;;;;;;5085100;28;20202;-81
2022/02/05 05:43:03;;;;;;;8.60;3.10;;;;;;;;;;5094705;28;20704;-80
2022/02/05 05:45:38;;;;;;;12.37;3.00;;;;;;;;;;5089602;28;20221;-80
2022/02/05 05:48:09;;;;;;;14.97;3.50;;;;;;;;;;5082384;28;20687;-80
2022/02/05 05:53:23;;;;;;;10.80;3.20;;;;;;;;;;5086250;28;20602;-81
2022/02/05 05:55:50;;;;;;;11.93;3.37;;;;;;;;;;5085569;28;20206;-80
2022/02/05 05:58:18;;;;;;;11.33;2.83;;;;;;;;;;5090395;28;20212;-80
2022/02/05 06:00:46;;;;;;;10.13;2.60;;;;;;;;;;5085723;28;20240;-79
2022/02/05 06:03:13;;;;;;;10.77;3.10;;;;;;;;;;5086655;28;20294;-81
2022/02/05 06:05:42;;;;;;;9.40;2.43;;;;;;;;;;5085219;28;20218;-81
2022/02/05 06:08:09;;;;;;;9.13;2.87;;;;;;;;;;5091977;28;20284;-81
2022/02/05 06:10:36;;;;;;;17.20;3.03;;;;;;;;;;5086967;28;20198;-80
2022/02/05 06:13:03;;;;;;;12.00;3.60;;;;;;;;;;5089516;28;20289;-81
2022/02/05 06:15:30;;;;;;;13.47;3.33;;;;;;;;;;5086818;28;20218;-81
2022/02/05 06:17:58;;;;;;;15.93;3.00;;;;;;;;;;5086676;28;20757;-80
2022/02/05 06:20:25;;;;;;;12.00;3.43;;;;;;;;;;5087538;28;20202;-81
2022/02/05 06:22:53;;;;;;;13.73;3.17;;;;;;;;;;5089701;28;20220;-80
2022/02/05 06:25:21;;;;;;;9.83;3.20;;;;;;;;;;5091174;28;20214;-81
2022/02/05 06:27:48;;;;;;;11.57;3.23;;;;;;;;;;5090056;28;20803;-81
2022/02/05 06:30:15;;;;;;;9.43;3.17;;;;;;;;;;5084490;28;20779;-81
2022/02/05 06:32:42;;;;;;;8.03;2.90;;;;;;;;;;5087806;28;20212;-80
2022/02/05 06:35:11;;;;;;;7.83;2.90;;;;;;;;;;5088593;28;20213;-81
2022/02/05 06:37:38;;;;;;;14.13;2.87;;;;;;;;;;5095595;28;20217;-81
2022/02/05 06:40:08;;;;;;;11.37;2.93;;;;;;;;;;5087810;28;20263;-82
2022/02/05 06:42:35;;;;;;;5.47;2.60;;;;;;;;;;5084484;28;20205;-82
2022/02/05 06:45:02;;;;;;;10.27;3.17;;;;;;;;;;5088997;28;20312;-82
2022/02/05 06:47:30;;;;;;;12.00;3.70;;;;;;;;;;5088114;28;20260;-82
2022/02/05 06:49:57;;;;;;;13.10;3.40;;;;;;;;;;5086998;28;20212;-82
2022/02/05 06:52:24;;;;;;;11.20;3.00;;;;;;;;;;5087980;28;20222;-83
2022/02/05 06:54:51;;;;;;;9.13;3.00;;;;;;;;;;5087608;28;20762;-82
2022/02/05 06:57:20;;;;;;;7.40;2.83;;;;;;;;;;5089175;28;20206;-82
2022/02/05 06:59:47;;;;;;;10.83;3.07;;;;;;;;;;5087716;28;20719;-81
2022/02/05 07:02:14;;;;;;;7.40;2.93;;;;;;;;;;5091230;28;20213;-82
2022/02/05 07:04:42;;;;;;;6.23;2.67;;;;;;;;;;5089140;28;20225;-82
2022/02/05 07:07:09;;;;;;;12.37;3.23;;;;;;;;;;5086136;28;20249;-82
2022/02/05 07:09:38;;;;;;;10.17;3.10;;;;;;;;;;5082885;28;20245;-82
2022/02/05 07:12:05;;;;;;;8.83;2.83;;;;;;;;;;5087319;28;20214;-82
2022/02/05 07:14:39;;;;;;;9.13;2.60;;;;;;;;;;5087323;28;20625;-81
2022/02/05 07:17:13;;;;;;;7.13;2.57;;;;;;;;;;5086562;28;20323;-82
2022/02/05 07:19:54;;;;;;;8.67;2.53;;;;;;;;;;5089393;28;20270;-82
2022/02/05 07:22:21;;;;;;;12.23;2.70;;;;;;;;;;5084357;28;20572;-82
2022/02/05 07:29:12;;;;;;;8.50;3.17;;;;;;;;;;5086342;28;20260;-82
2022/02/05 07:30:31;;;;;;;10.93;2.90;;;;;;;;;;5085787;28;20515;-82
2022/02/05 07:32:59;;;;;;;5.17;2.40;;;;;;;;;;5084060;28;20294;-82
2022/02/05 07:35:27;;;;;;;12.80;2.70;;;;;;;;;;5091462;28;20231;-82
2022/02/05 07:37:56;;;;;;;13.10;3.30;;;;;;;;;;5084895;28;20577;-82
2022/02/05 07:40:23;;;;;;;8.80;3.00;;;;;;;;;;5086495;28;20205;-81
2022/02/05 07:42:51;;;;;;;8.23;3.10;;;;;;;;;;5086761;28;20288;-81
2022/02/05 07:45:19;;;;;;;11.43;2.77;;;;;;;;;;5089707;28;20253;-81
2022/02/05 07:47:48;;;;;;;16.53;3.07;;;;;;;;;;5087855;28;20206;-81
2022/02/05 07:50:15;;;;;;;6.33;2.83;;;;;;;;;;5088505;28;20241;-82
2022/02/05 07:52:42;;;;;;;4.27;2.10;;;;;;;;;;5087825;28;20277;-81
2022/02/05 07:55:10;;;;;;;10.43;3.00;;;;;;;;;;5084713;28;20233;-82
2022/02/05 07:57:37;;;;;;;9.83;2.77;;;;;;;;;;5084515;28;20205;-81
2022/02/05 08:00:05;;;;;;;9.70;3.53;;;;;;;;;;5089219;28;20215;-82
2022/02/05 08:02:33;;;;;;;6.90;2.83;;;;;;;;;;5086229;28;20210;-82
2022/02/05 08:05:01;;;;;;;11.93;3.13;;;;;;;;;;5081360;28;20239;-82
2022/02/05 08:07:28;;;;;;;5.73;2.17;;;;;;;;;;5083924;28;20213;-82
2022/02/05 08:09:59;;;;;;;7.00;2.50;;;;;;;;;;5087821;28;20588;-81
2022/02/05 08:12:27;;;;;;;10.43;2.77;;;;;;;;;;5084827;28;20258;-81
2022/02/05 08:14:57;;;;;;;10.40;3.93;;;;;;;;;;5087402;28;20225;-82
2022/02/05 08:17:27;;;;;;;8.70;2.97;;;;;;;;;;5086585;28;20194;-82
2022/02/05 08:19:55;;;;;;;13.60;2.77;;;;;;;;;;5084544;28;20206;-82
2022/02/05 08:22:23;;;;;;;10.60;3.03;;;;;;;;;;5086711;28;20599;-82
2022/02/05 08:24:50;;;;;;;8.23;3.30;;;;;;;;;;5084810;28;20240;-82
2022/02/05 08:27:18;;;;;;;10.33;2.97;;;;;;;;;;5084580;28;20217;-82
2022/02/05 08:29:53;;;;;;;10.57;3.37;;;;;;;;;;5085693;28;20208;-82
2022/02/05 08:32:22;;;;;;;8.63;2.63;;;;;;;;;;5083800;28;20200;-82
2022/02/05 08:34:50;;;;;;;14.43;2.90;;;;;;;;;;5086967;28;20218;-83
2022/02/05 08:37:17;;;;;;;11.70;3.23;;;;;;;;;;5083428;28;20255;-82
2022/02/05 08:39:45;;;;;;;8.73;3.03;;;;;;;;;;5084967;28;20218;-82
2022/02/05 08:42:13;;;;;;;8.13;3.20;;;;;;;;;;5087701;28;20223;-82
2022/02/05 08:44:40;;;;;;;8.67;3.20;;;;;;;;;;5090858;28;20240;-82
2022/02/05 08:47:07;;;;;;;14.30;4.23;;;;;;;;;;5084306;28;20206;-82
2022/02/05 08:49:35;;;;;;;9.43;2.80;;;;;;;;;;5082922;28;20297;-82
2022/02/05 08:52:05;;;;;;;9.27;3.30;;;;;;;;;;5084798;28;20197;-82
2022/02/05 08:54:32;;;;;;;7.47;2.93;;;;;;;;;;5085015;28;20267;-82
2022/02/05 08:57:01;;;;;;;6.50;2.93;;;;;;;;;;5086515;28;20205;-82
2022/02/05 08:59:33;;;;;;;16.93;3.57;;;;;;;;;;5083401;28;20225;-82
2022/02/05 09:02:07;;;;;;;23.90;3.50;;;;;;;;;;5085402;28;20214;-82
2022/02/05 09:04:46;;;;;;;8.70;2.50;;;;;;;;;;5090385;28;20230;-82
2022/02/05 09:07:13;;;;;;;10.47;2.70;;;;;;;;;;5087617;28;20629;-82
2022/02/05 09:09:52;;;;;;;9.23;3.43;;;;;;;;;;5086172;28;20597;-82
2022/02/05 09:12:33;;;;;;;9.77;2.87;;;;;;;;;;5083576;28;20214;-83
2022/02/05 09:15:00;;;;;;;9.43;3.10;;;;;;;;;;5088857;28;20732;-82
2022/02/05 09:17:28;;;;;;;8.17;3.10;;;;;;;;;;5082162;28;20584;-83
2022/02/05 09:19:55;;;;;;;19.73;2.90;;;;;;;;;;5083179;28;20584;-82
2022/02/05 09:22:22;;;;;;;10.57;2.87;;;;;;;;;;5088085;28;20297;-82
2022/02/05 09:24:50;;;;;;;10.83;4.30;;;;;;;;;;5086343;28;20221;-82
2022/02/05 09:27:18;;;;;;;11.17;3.30;;;;;;;;;;5092126;28;20647;-83
2022/02/05 09:29:59;;;;;;;8.47;3.17;;;;;;;;;;5084860;28;20212;-81
2022/02/05 09:32:26;;;;;;;7.73;2.73;;;;;;;;;;5084179;28;20205;-83
2022/02/05 09:34:54;;;;;;;11.03;3.03;;;;;;;;;;5084168;28;20271;-81
2022/02/05 09:37:21;;;;;;;7.30;2.73;;;;;;;;;;5076867;28;20292;-82
2022/02/05 09:39:48;;;;;;;11.07;2.97;;;;;;;;;;5081410;28;20641;-83
2022/02/05 09:42:15;;;;;;;8.67;2.50;;;;;;;;;;5089794;28;20202;-82
2022/02/05 09:44:42;;;;;;;8.07;2.50;;;;;;;;;;5087126;28;20238;-81
2022/02/05 09:47:11;;;;;;;5.97;1.73;;;;;;;;;;5077510;28;20202;-81
2022/02/05 09:49:39;;;;;;;7.30;2.50;;;;;;;;;;5071906;28;20571;-82
2022/02/05 09:52:09;;;;;;;9.33;2.57;;;;;;;;;;5069775;28;20198;-81
2022/02/05 09:54:37;;;;;;;6.07;1.90;;;;;;;;;;5076538;28;20225;-82
2022/02/05 09:57:04;;;;;;;8.90;2.43;;;;;;;;;;5077083;28;20210;-81
2022/02/05 09:59:39;;;;;;;8.30;2.73;;;;;;;;;;5073862;28;20206;-82
2022/02/05 10:02:20;;;;;;;4.70;1.60;;;;;;;;;;5072012;28;21352;-81
2022/02/05 10:04:58;;;;;;;7.70;2.67;;;;;;;;;;5071212;28;20241;-82
2022/02/05 10:07:27;;;;;;;7.17;2.13;;;;;;;;;;5074451;28;20597;-79
2022/02/05 10:09:54;;;;;;;7.33;2.60;;;;;;;;;;5081525;28;20656;-78
2022/02/05 10:12:21;;;;;;;8.47;2.37;;;;;;;;;;5084640;28;20293;-79
2022/02/05 10:14:51;;;;;;;10.20;2.60;;;;;;;;;;5076308;28;21637;-79
2022/02/05 10:17:19;;;;;;;9.60;2.33;;;;;;;;;;5084909;28;20205;-79
2022/02/05 10:19:49;;;;;;;10.23;2.30;;;;;;;;;;5081717;28;20952;-79
2022/02/05 10:22:16;;;;;;;5.57;1.80;;;;;;;;;;5085325;28;20194;-80
2022/02/05 10:24:50;;;;;;;8.87;1.97;;;;;;;;;;5078918;28;20226;-80
2022/02/05 10:27:27;;;;;;;7.57;2.20;;;;;;;;;;5078539;28;20400;-80
2022/02/05 10:30:05;;;;;;;5.47;1.70;;;;;;;;;;5086804;28;20200;-80
2022/02/05 10:32:32;;;;;;;9.63;2.23;;;;;;;;;;5076651;28;20194;-80
2022/02/05 10:35:05;;;;;;;8.40;2.47;;;;;;;;;;5084348;28;20247;-80
2022/02/05 10:37:42;;;;;;;9.73;2.60;;;;;;;;;;5082413;28;20206;-80
2022/02/05 10:40:13;;;;;;;7.93;2.20;;;;;;;;;;5088402;28;20233;-80
2022/02/05 10:43:01;;;;;;;9.27;2.30;;;;;;;;;;5086694;28;20200;-80
2022/02/05 10:45:31;;;;;;;11.70;2.30;;;;;;;;;;5082798;28;20222;-80
2022/02/05 10:47:59;;;;;;;6.17;2.07;;;;;;;;;;5081374;28;20202;-79
2022/02/05 10:50:29;;;;;;;10.63;2.53;;;;;;;;;;5079472;28;20203;-80
2022/02/05 10:53:01;;;;;;;6.47;2.43;;;;;;;;;;5083355;28;20280;-80
2022/02/05 10:55:52;;;;;;;11.27;2.10;;;;;;;;;;5080608;28;20286;-80
2022/02/05 10:58:34;;;;;;;8.30;1.80;;;;;;;;;;5086409;28;20889;-80
2022/02/05 11:06:59;;;;;;;7.57;2.10;;;;;;;;;;5074872;28;20285;-80
2022/02/05 11:09:26;;;;;;;5.27;1.77;;;;;;;;;;5078403;28;20201;-80
2022/02/05 11:20:12;;;;;;;9.97;2.00;;;;;;;;;;5087567;28;20860;-80
2022/02/05 11:22:43;;;;;;;7.20;2.40;;;;;;;;;;5088704;28;20291;-80
2022/02/05 11:25:11;;;;;;;6.77;1.83;;;;;;;;;;5087481;28;20773;-80
2022/02/05 11:27:42;;;;;;;6.27;1.67;;;;;;;;;;5090000;28;20272;-81
2022/02/05 11:30:29;;;;;;;5.70;1.90;;;;;;;;;;5089951;28;20213;-81
2022/02/05 11:32:59;;;;;;;8.80;2.57;;;;;;;;;;5088445;28;20201;-81
2022/02/05 11:35:32;;;;;;;10.47;3.27;;;;;;;;;;5087919;28;20230;-81
2022/02/05 11:38:01;;;;;;;10.17;3.20;;;;;;;;;;5092603;28;20466;-81
2022/02/05 11:40:48;;;;;;;14.00;4.47;;;;;;;;;;5085751;28;20202;-81
2022/02/05 11:43:22;;;;;;;13.90;3.37;;;;;;;;;;5087380;28;20198;-81
2022/02/05 11:46:09;;;;;;;9.50;3.27;;;;;;;;;;5087554;28;20551;-81
2022/02/05 11:48:41;;;;;;;7.43;2.03;;;;;;;;;;5089579;28;20204;-81
2022/02/05 11:51:10;;;;;;;10.10;2.03;;;;;;;;;;5086928;28;20205;-81
2022/02/05 11:53:52;;;;;;;5.77;2.00;;;;;;;;;;5085866;28;20202;-81
2022/02/05 11:56:20;;;;;;;4.07;2.00;;;;;;;;;;5088486;28;20202;-81
2022/02/05 11:58:56;;;;;;;11.47;2.30;;;;;;;;;;5083451;28;20202;-79
2022/02/05 12:01:34;;;;;;;7.17;3.00;;;;;;;;;;5083996;28;20605;-79
2022/02/05 12:04:10;;;;;;;13.90;2.60;;;;;;;;;;5084075;28;20225;-78
2022/02/05 12:06:52;;;;;;;7.90;2.60;;;;;;;;;;5081722;28;20298;-79
2022/02/05 12:09:42;;;;;;;8.87;2.77;;;;;;;;;;5079350;28;20202;-78
2022/02/05 12:12:35;;;;;;;8.47;3.07;;;;;;;;;;5080155;28;20238;-78
2022/02/05 12:15:26;;;;;;;9.40;3.77;;;;;;;;;;5085307;28;20237;-78
2022/02/05 12:18:13;;;;;;;5.47;1.83;;;;;;;;;;5064765;28;20202;-77
2022/02/05 12:21:02;;;;;;;8.00;2.10;;;;;;;;;;5086716;28;20198;-78
2022/02/05 12:24:15;;;;;;;7.03;2.03;;;;;;;;;;5080249;28;20225;-77
2022/02/05 12:26:47;;;;;;;8.50;1.70;;;;;;;;;;5079917;28;20204;-78
2022/02/05 12:29:41;;;;;;;7.33;2.93;;;;;;;;;;5083544;28;20208;-77
2022/02/05 12:32:08;;;;;;;4.63;1.80;;;;;;;;;;5057884;28;20728;-77
2022/02/05 12:34:37;;;;;;;4.67;2.27;;;;;;;;;;5082683;28;20342;-77
2022/02/05 12:37:04;;;;;;;5.77;2.17;;;;;;;;;;5083315;28;20213;-77
2022/02/05 12:39:32;;;;;;;5.37;1.77;;;;;;;;;;5085640;28;20271;-76
2022/02/05 12:42:02;;;;;;;8.77;3.13;;;;;;;;;;5082729;28;20212;-76
2022/02/05 12:44:30;;;;;;;6.17;4.03;;;;;;;;;;5083663;28;20782;-77
2022/02/05 12:47:00;;;;;;;5.57;2.43;;;;;;;;;;5083463;28;20589;-77
2022/02/05 12:49:31;;;;;;;8.80;3.50;;;;;;;;;;5083914;28;20263;-76
2022/02/05 12:52:00;;;;;;;7.10;2.70;;;;;;;;;;5084935;28;20274;-77
2022/02/05 12:54:29;;;;;;;8.07;2.50;;;;;;;;;;5082054;28;20234;-77
2022/02/05 12:56:57;;;;;;;8.30;2.30;;;;;;;;;;5081666;28;20691;-76
2022/02/05 12:59:30;;;;;;;7.37;3.00;;;;;;;;;;5088489;28;20207;-76
2022/02/05 13:01:58;;;;;;;5.50;2.20;;;;;;;;;;5087627;28;20316;-77
2022/02/05 13:04:26;;;;;;;8.83;2.57;;;;;;;;;;5087110;28;20312;-76
2022/02/05 13:07:00;;;;;;;7.53;2.70;;;;;;;;;;5086298;28;20202;-77
2022/02/05 13:09:28;;;;;;;7.97;2.50;;;;;;;;;;5084001;28;20193;-76
2022/02/05 13:11:58;;;;;;;11.30;2.40;;;;;;;;;;5081775;28;20198;-76
2022/02/05 13:14:36;;;;;;;5.13;2.50;;;;;;;;;;5084681;28;20217;-76
2022/02/05 13:17:03;;;;;;;7.77;3.13;;;;;;;;;;5087896;28;20229;-77
2022/02/05 13:19:49;;;;;;;10.50;2.90;;;;;;;;;;5085195;28;20493;-76
2022/02/05 13:28:03;;;;;;;9.03;2.37;;;;;;;;;;5087390;28;20213;-77
2022/02/05 13:36:06;;;;;;;4.17;1.30;;;;;;;;;;5083773;28;20208;-76
2022/02/05 13:38:42;;;;;;;3.70;1.80;;;;;;;;;;5085506;28;20251;-76
2022/02/05 13:41:10;;;;;;;5.03;1.80;;;;;;;;;;5085032;28;20219;-76
2022/02/05 13:43:42;;;;;;;3.43;1.77;;;;;;;;;;5082130;28;20208;-76
2022/02/05 13:46:15;;;;;;;3.93;1.50;;;;;;;;;;5088035;28;20221;-76
2022/02/05 13:48:42;;;;;;;3.63;1.10;;;;;;;;;;5088280;28;20229;-76
2022/02/05 13:51:10;;;;;;;6.27;1.60;;;;;;;;;;5083902;28;20646;-76
2022/02/05 13:53:49;;;;;;;6.23;1.60;;;;;;;;;;5085933;28;20214;-76
2022/02/05 13:56:16;;;;;;;4.30;1.47;;;;;;;;;;5081996;28;20227;-75
2022/02/05 13:58:43;;;;;;;5.20;1.40;;;;;;;;;;5078005;28;20212;-75
2022/02/05 14:01:11;;;;;;;4.93;1.43;;;;;;;;;;5084721;28;20209;-75
2022/02/05 14:03:40;;;;;;;5.20;2.03;;;;;;;;;;5085782;28;20313;-75
2022/02/05 14:06:08;;;;;;;6.57;1.43;;;;;;;;;;5080503;28;20221;-75
2022/02/05 14:08:36;;;;;;;7.87;1.77;;;;;;;;;;5086688;28;20193;-76
2022/02/05 14:11:04;;;;;;;6.37;1.70;;;;;;;;;;5088078;28;20668;-76
2022/02/05 14:13:32;;;;;;;6.30;1.30;;;;;;;;;;5086553;28;20554;-75
2022/02/05 14:16:01;;;;;;;2.23;1.30;;;;;;;;;;5084647;28;20288;-76
2022/02/05 14:18:30;;;;;;;2.63;1.47;;;;;;;;;;5081651;28;20231;-77
2022/02/05 14:20:59;;;;;;;2.40;1.03;;;;;;;;;;5090042;28;20215;-76
2022/02/05 14:23:28;;;;;;;1.87;1.13;;;;;;;;;;5084876;28;20252;-76
2022/02/05 14:26:00;;;;;;;1.90;0.90;;;;;;;;;;5090445;28;20257;-76
2022/02/05 14:28:29;;;;;;;9.37;1.47;;;;;;;;;;5086195;28;20558;-76
2022/02/05 14:31:06;;;;;;;4.67;2.43;;;;;;;;;;5087887;28;20205;-76
2022/02/05 14:33:43;;;;;;;5.70;1.60;;;;;;;;;;5087284;28;20231;-76
2022/02/05 14:36:35;;;;;;;3.00;1.23;;;;;;;;;;5087324;28;20537;-76
2022/02/05 14:41:46;;;;;;;6.33;2.50;;;;;;;;;;5086367;28;20208;-76
2022/02/05 14:44:15;;;;;;;3.87;2.20;;;;;;;;;;5083826;28;20228;-76
2022/02/05 14:46:42;;;;;;;5.50;1.70;;;;;;;;;;5084646;28;20222;-76
2022/02/05 14:49:09;;;;;;;4.57;1.00;;;;;;;;;;5079168;28;20198;-75
2022/02/05 14:51:38;;;;;;;2.67;1.07;;;;;;;;;;5080850;28;20213;-75
2022/02/05 14:54:06;;;;;;;3.83;1.10;;;;;;;;;;5079030;28;20321;-75
2022/02/05 14:56:33;;;;;;;3.77;1.30;;;;;;;;;;5086154;28;20296;-76
2022/02/05 14:59:00;;;;;;;5.10;1.57;;;;;;;;;;5085537;28;20686;-76
2022/02/05 15:01:28;;;;;;;5.57;1.33;;;;;;;;;;5088056;28;20199;-75
2022/02/05 15:03:56;;;;;;;5.00;1.50;;;;;;;;;;5085289;28;20315;-75
2022/02/05 15:06:26;;;;;;;4.47;1.30;;;;;;;;;;5083354;28;20224;-75
2022/02/05 15:08:56;;;;;;;9.70;2.47;;;;;;;;;;5085880;28;20232;-74
2022/02/05 15:11:24;;;;;;;8.13;3.00;;;;;;;;;;5084196;28;20744;-74
2022/02/05 15:13:52;;;;;;;5.20;1.90;;;;;;;;;;5086400;28;20264;-75
2022/02/05 15:16:21;;;;;;;6.57;2.67;;;;;;;;;;5085423;28;20198;-75
2022/02/05 15:18:52;;;;;;;5.37;1.90;;;;;;;;;;5086066;28;20297;-74
2022/02/05 15:21:19;;;;;;;2.07;0.90;;;;;;;;;;5080901;28;20194;-74
2022/02/05 15:23:47;;;;;;;9.60;2.17;;;;;;;;;;5082536;28;20298;-74
2022/02/05 15:26:16;;;;;;;4.00;1.30;;;;;;;;;;5080719;28;20688;-74
2022/02/05 15:28:43;;;;;;;6.77;1.80;;;;;;;;;;5086411;28;20672;-75
2022/02/05 15:31:11;;;;;;;6.03;1.30;;;;;;;;;;5085751;28;20288;-75
2022/02/05 15:33:41;;;;;;;5.17;1.67;;;;;;;;;;5084704;28;20284;-74
2022/02/05 15:36:10;;;;;;;4.60;1.70;;;;;;;;;;5083917;28;20190;-75
2022/02/05 15:38:44;;;;;;;7.47;2.27;;;;;;;;;;5084598;28;20204;-76
2022/02/05 15:43:57;;;;;;;6.93;2.30;;;;;;;;;;5082821;28;20352;-76
2022/02/05 15:46:25;;;;;;;8.77;2.77;;;;;;;;;;5077550;28;20253;-76
2022/02/05 15:48:52;;;;;;;7.83;3.23;;;;;;;;;;5077698;28;20225;-76
2022/02/05 15:51:21;;;;;;;8.20;2.37;;;;;;;;;;5081448;28;20202;-76
2022/02/05 15:53:51;;;;;;;5.47;2.10;;;;;;;;;;5078401;28;20229;-76
2022/02/05 15:56:28;;;;;;;6.80;2.40;;;;;;;;;;5079168;28;20485;-76
2022/02/05 15:58:57;;;;;;;6.80;2.03;;;;;;;;;;5080193;28;20552;-76
2022/02/05 16:01:25;;;;;;;6.57;2.93;;;;;;;;;;5081689;28;20488;-77
2022/02/05 16:03:53;;;;;;;6.20;1.80;;;;;;;;;;5083902;28;20246;-77
2022/02/05 16:06:20;;;;;;;3.50;2.17;;;;;;;;;;5082651;28;20229;-76
2022/02/05 16:08:47;;;;;;;4.43;1.90;;;;;;;;;;5083205;28;20259;-75
2022/02/05 16:11:17;;;;;;;4.47;1.80;;;;;;;;;;5080247;28;20205;-76
2022/02/05 16:13:44;;;;;;;4.37;1.40;;;;;;;;;;5081078;28;20233;-76
2022/02/05 16:16:11;;;;;;;8.17;2.00;;;;;;;;;;5080100;28;20664;-76
2022/02/05 16:18:40;;;;;;;6.27;2.17;;;;;;;;;;5080057;28;20214;-76
2022/02/05 16:21:08;;;;;;;4.80;2.00;;;;;;;;;;5078551;28;20893;-76
2022/02/05 16:23:35;;;;;;;6.90;2.20;;;;;;;;;;5081607;28;20772;-76
2022/02/05 16:26:05;;;;;;;5.97;2.27;;;;;;;;;;5081692;28;20233;-76
2022/02/05 16:28:34;;;;;;;6.40;2.40;;;;;;;;;;5084595;28;20282;-76
2022/02/05 16:31:02;;;;;;;6.97;2.30;;;;;;;;;;5082977;28;20220;-76
2022/02/05 16:33:32;;;;;;;5.97;2.63;;;;;;;;;;5087683;28;20296;-76
2022/02/05 16:36:07;;;;;;;8.50;2.93;;;;;;;;;;5090277;28;20613;-76
2022/02/05 16:38:34;;;;;;;7.87;1.80;;;;;;;;;;5085999;28;20204;-76
2022/02/05 16:41:05;;;;;;;6.43;2.93;;;;;;;;;;5087321;28;20209;-76
2022/02/05 16:43:32;;;;;;;9.40;3.20;;;;;;;;;;5090773;28;20212;-77
2022/02/05 16:45:59;;;;;;;7.20;2.97;;;;;;;;;;5087593;28;20308;-76
2022/02/05 16:48:27;;;;;;;11.30;2.60;;;;;;;;;;5087078;28;20213;-76
2022/02/05 16:50:54;;;;;;;7.13;2.37;;;;;;;;;;5086118;28;20335;-76